Jennerstown, PA (15547)

11:40 AM EDT on September 21, 2014 (GMT -0400)
Stoystown | Change Station
CLOSE
Current Station
Personal Weather Station
Location: Stoystown, PA
Elevation: 2172 ft
Nearby Weather Stations

Elev 2172 ft 40.11 °N, 78.94 °W | Updated 9 seconds ago

Overcast
Overcast
70.3 °F
Feels Like 77 °F
N
9.8
Wind Variable Wind from East
Gusts 9.8 mph

Today
High -- | Low -- °F
--% Chance of Precip.
Yesterday
High -- | Low -- °F
Precip. -- in
7:02 AM 7:15 PM
Waning Crescent, 6% visible
Pressure 29.84 in
Visibility 4.0 miles
Clouds Few 2300 ft
Mostly Cloudy 7500 ft
Overcast 9000 ft
Heat Index 77 °F
Dew Point 50 °F
Humidity 48%
Rainfall 0.00 in
Snow Depth Not available.
UV 2 out of 12
Pollen 2.90 out of 12
Ozone Good
PM2.5 Moderate
Flu Activity Not available.
SPECI KJST 211523Z AUTO 23008KT 4SM RA BR FEW023 BKN075 OVC090 18/17 A2984 RMK AO2 RAB01 P0006 T01830167

More Conditions Fewer Conditions

Pressure 29.84 in
Visibility 4.0 miles
Clouds Few 2300 ft
Mostly Cloudy 7500 ft
Overcast 9000 ft
Heat Index 77 °F
Dew Point 50 °F
Humidity 48%
Rainfall 0.00 in
Snow Depth Not available.
UV 2 out of 12
Pollen 2.90 out of 12
Ozone Good
PM2.5 Moderate
Flu Activity Not available.
SPECI KJST 211523Z AUTO 23008KT 4SM RA BR FEW023 BKN075 OVC090 18/17 A2984 RMK AO2 RAB01 P0006 T01830167

More Conditions Fewer Conditions

Nowcast | as of 11:00 am EDT on September 21, 2014

Scattered showers will continue pushing eastward across the area late this morning...ahead of an approaching cold front.

×

10-Day Weather Forecast

Almanac

Astronomy

Sep. 21, 2014 Rise Set
Actual Time 7:02 AM EDT 7:15 PM EDT
Civil Twilight 6:35 AM EDT 7:42 PM EDT
Nautical Twilight 6:03 AM EDT 8:13 PM EDT
Astronomical Twilight 5:31 AM EDT 8:46 PM EDT
Moon 4:34 AM EDT 5:50 PM EDT
Length of Visible Light 13h 06m
Length of Day
12h 12m
Tomorrow will be 2m 38s shorter.
Waning Crescent, 6% of the Moon is Illuminated
Today
Waning Crescent
Sep 24
New
Oct 1
First Quarter
Oct 8
Full
Oct 15
Last Quarter

Today's Extremes

State Highs State Lows

Community

WunderPhotos

Upload Photos

1,755,176 photos uploaded!

Nearby

Air Quality

  Air Quality AQ Index Pollutant
Yesterday Moderate
PM2.5
Yesterday Good
OZONE
Current Moderate
PM2.5
Current Good
OZONE
Sunday Moderate
PM2.5
Monday Good
PM2.5
Tuesday Good
PM2.5

Snow Depth

Station Depth Elevation
No new snow has been reported.

Earthquake Activity

City Distance Mag. Time & Date
No recent earthquake activity has been reported nearby.
Minimum magnitude displayed is 2.5.

Coastal Water Temperatures

Place Temperature
No Stations Reporting

Nearby Weather Stations